createdAt,value
2023-04-27T20:07:29.015Z,95160.41
2023-04-27T20:09:56.190Z,95167.09
2023-04-27T20:12:37.349Z,95157.94
2023-04-27T20:15:11.986Z,95159.69
2023-04-27T20:17:38.915Z,95154.47
2023-04-27T20:20:10.055Z,95158.03
2023-04-27T20:22:38.181Z,95164.19
2023-04-27T20:25:07.781Z,95167.97
2023-04-27T20:27:35.467Z,95167.84
2023-04-27T20:30:02.783Z,95174.03
2023-04-27T20:32:29.857Z,95169.41
2023-04-27T20:34:56.743Z,95170.06
2023-04-27T20:37:24.807Z,95164.06
2023-04-27T20:39:52.337Z,95165.53
2023-04-27T20:42:20.609Z,95175.16
2023-04-27T20:44:48.576Z,95170.78
2023-04-27T20:47:15.567Z,95172.25
2023-04-27T20:49:42.822Z,95173.72
2023-04-27T20:52:09.984Z,95173.34
2023-04-27T20:54:37.220Z,95173.19
2023-04-27T20:57:08.551Z,95181.56
2023-04-27T20:59:35.534Z,95179.38
2023-04-27T21:02:02.815Z,95173.72
2023-04-27T21:04:29.955Z,95176.59
2023-04-27T21:06:57.063Z,95171.72
2023-04-27T21:09:24.290Z,95163.41
2023-04-27T21:11:51.306Z,95170.75
2023-04-27T21:14:18.283Z,95177.28
2023-04-27T21:16:45.372Z,95178.31
2023-04-27T21:19:16.474Z,95174.28
2023-04-27T21:21:43.660Z,95180.63
2023-04-27T21:24:10.598Z,95177.38
2023-04-27T21:26:37.612Z,95176.53
2023-04-27T21:29:05.963Z,95165.41
2023-04-27T21:31:34.192Z,95173.34
2023-04-27T21:34:03.347Z,95166.66
2023-04-27T21:36:30.531Z,95167.44
2023-04-27T21:38:57.434Z,95165.59
2023-04-27T21:41:24.381Z,95162.75
2023-04-27T21:43:51.409Z,95160.09
2023-04-27T21:46:18.434Z,95151.34
2023-04-27T21:48:45.519Z,95153.78
2023-04-27T21:51:12.432Z,95148.28
2023-04-27T21:53:39.374Z,95146.66
2023-04-27T21:56:06.822Z,95137.69
2023-04-27T21:58:34.044Z,95143.78
2023-04-27T22:01:01.135Z,95135.66
2023-04-27T22:03:28.887Z,95133.78
2023-04-27T22:05:57.522Z,95130.13
2023-04-27T22:08:24.593Z,95138.84
2023-04-27T22:10:51.900Z,95139.69
2023-04-27T22:13:19.778Z,95130.91
2023-04-27T22:15:47.906Z,95124.00
2023-04-27T22:18:15.368Z,95128.28
2023-04-27T22:20:43.204Z,95130.91
2023-04-27T22:23:10.784Z,95134.59
2023-04-27T22:25:38.349Z,95131.38
2023-04-27T22:28:05.342Z,95127.91
2023-04-27T22:30:32.377Z,95138.50
2023-04-27T22:32:59.356Z,95136.88
2023-04-27T22:35:27.809Z,95124.88
2023-04-27T22:37:59.687Z,95134.06
2023-04-27T22:40:27.545Z,95129.25
2023-04-27T22:42:55.406Z,95136.16
2023-04-27T22:45:34.269Z,95131.06
2023-04-27T22:48:02.349Z,95131.06
2023-04-27T22:50:29.796Z,95133.09
2023-04-27T22:52:56.709Z,95144.50
2023-04-27T22:55:23.759Z,95143.09
2023-04-27T22:57:50.953Z,95150.00
2023-04-27T23:00:17.993Z,95150.00
2023-04-27T23:02:45.086Z,95133.31
2023-04-27T23:05:12.435Z,95135.94
2023-04-27T23:07:42.801Z,95137.78
2023-04-27T23:10:10.608Z,95139.63
2023-04-27T23:12:38.651Z,95131.13
2023-04-27T23:15:06.329Z,95131.13
2023-04-27T23:17:33.739Z,95130.50
2023-04-27T23:20:11.156Z,95135.81
2023-04-27T23:22:43.615Z,95131.53
2023-04-27T23:25:11.270Z,95128.88
2023-04-27T23:27:38.243Z,95116.91
2023-04-27T23:30:06.026Z,95123.81
2023-04-27T23:32:33.822Z,95121.41
2023-04-27T23:35:00.712Z,95122.22
2023-04-27T23:37:27.659Z,95113.91
2023-04-27T23:39:54.565Z,95120.81
2023-04-27T23:42:21.604Z,95124.25
2023-04-27T23:44:48.510Z,95129.75
2023-04-27T23:47:15.658Z,95118.59
2023-04-27T23:49:45.600Z,95127.34
2023-04-27T23:52:12.574Z,95113.53
2023-04-27T23:54:39.477Z,95121.47
2023-04-27T23:57:06.660Z,95118.22
2023-04-27T23:59:35.384Z,95110.28
